createdAt,value
2019-05-26T00:01:15.406Z,101370.34
2019-05-26T00:03:49.111Z,101367.17
2019-05-26T00:06:22.816Z,101360.07
2019-05-26T00:08:56.598Z,101360.07
2019-05-26T00:11:30.326Z,101357.15
2019-05-26T00:14:04.116Z,101353.73
2019-05-26T00:16:38.022Z,101350.06
2019-05-26T00:19:12.370Z,101350.06
2019-05-26T00:21:46.426Z,101349.20
2019-05-26T00:24:20.122Z,101337.02
2019-05-26T00:26:53.836Z,101336.08
2019-05-26T00:29:27.685Z,101336.08
2019-05-26T00:34:28.614Z,101330.69
2019-05-26T00:37:02.316Z,101320.95
2019-05-26T00:39:36.038Z,101320.95
2019-05-26T00:42:09.783Z,101320.63
2019-05-26T00:44:44.065Z,101316.27
2019-05-26T00:47:17.777Z,101316.27
2019-05-26T00:49:51.744Z,101314.19
2019-05-26T00:52:25.494Z,101307.84
2019-05-26T00:54:59.203Z,101307.84
2019-05-26T00:57:32.934Z,101308.72
2019-05-26T01:00:08.179Z,101308.72
2019-05-26T01:02:41.908Z,101304.94
2019-05-26T01:05:15.621Z,101304.94
2019-05-26T01:08:05.144Z,101296.95
2019-05-26T01:10:24.749Z,101296.95
2019-05-26T01:12:58.463Z,101288.88
2019-05-26T01:15:32.186Z,101288.88
2019-05-26T01:18:05.904Z,101285.53
2019-05-26T01:20:39.703Z,101284.52
2019-05-26T01:23:13.400Z,101284.52
2019-05-26T01:25:47.109Z,101285.46
2019-05-26T01:28:22.447Z,101285.31
2019-05-26T01:30:56.225Z,101285.31
2019-05-26T01:33:29.968Z,101280.81
2019-05-26T01:36:03.688Z,101278.63
2019-05-26T01:38:37.392Z,101279.06
2019-05-26T01:41:11.094Z,101279.06
2019-05-26T01:43:44.832Z,101272.98
2019-05-26T01:46:18.543Z,101266.27
2019-05-26T01:48:52.260Z,101266.27
2019-05-26T01:51:25.970Z,101261.42
2019-05-26T01:54:00.142Z,101257.95
2019-05-26T01:56:33.904Z,101257.95
2019-05-26T01:59:07.648Z,101252.02
2019-05-26T02:07:24.437Z,101252.13
2019-05-26T02:10:16.512Z,101240.77
2019-05-26T02:13:08.252Z,101242.29
2019-05-26T02:16:00.062Z,101242.29
2019-05-26T02:18:52.125Z,101234.58
2019-05-26T02:21:44.234Z,101233.06
2019-05-26T02:24:36.354Z,101230.28
2019-05-26T02:27:28.421Z,101230.28
2019-05-26T02:30:20.224Z,101224.56
2019-05-26T02:33:12.112Z,101221.21
2019-05-26T02:36:04.333Z,101220.81
2019-05-26T02:39:02.677Z,101217.33
2019-05-26T02:41:49.589Z,101217.55
2019-05-26T02:44:41.386Z,101215.81
2019-05-26T02:47:33.180Z,101215.81
2019-05-26T02:50:25.117Z,101209.20
2019-05-26T02:53:17.170Z,101206.98
2019-05-26T02:56:09.305Z,101203.95
2019-05-26T02:59:01.033Z,101203.62
2019-05-26T03:02:02.898Z,101193.69
2019-05-26T03:04:34.708Z,101190.69
2019-05-26T03:07:14.257Z,101193.36
2019-05-26T03:09:54.629Z,101190.88
2019-05-26T03:12:34.355Z,101191.56
2019-05-26T03:15:14.343Z,101191.00
2019-05-26T03:17:54.342Z,101197.59
2019-05-26T03:20:39.765Z,101191.17
2019-05-26T03:23:19.512Z,101186.09
2019-05-26T03:25:59.117Z,101186.97
2019-05-26T03:28:38.934Z,101186.97
2019-05-26T03:31:19.065Z,101180.70
2019-05-26T03:33:59.266Z,101172.84
2019-05-26T03:36:38.862Z,101166.34
2019-05-26T03:39:18.948Z,101166.34
2019-05-26T03:41:58.539Z,101171.64
2019-05-26T03:44:38.209Z,101171.20
2019-05-26T03:47:17.702Z,101163.01
2019-05-26T03:49:57.147Z,101161.47
2019-05-26T03:52:36.789Z,101162.45
2019-05-26T03:55:16.231Z,101161.72
2019-05-26T03:57:55.768Z,101157.52
2019-05-26T04:00:35.673Z,101159.14
2019-05-26T04:03:15.128Z,101156.03
2019-05-26T04:05:54.481Z,101162.66
2019-05-26T04:08:46.563Z,101154.02
2019-05-26T04:11:38.623Z,101154.12
2019-05-26T04:14:30.299Z,101154.66
2019-05-26T04:17:22.156Z,101155.87
2019-05-26T04:20:14.340Z,101155.37
2019-05-26T04:23:06.283Z,101157.27
2019-05-26T04:25:58.113Z,101157.27
2019-05-26T04:28:49.890Z,101154.41
2019-05-26T04:31:41.763Z,101150.86
2019-05-26T04:34:33.591Z,101148.19
2019-05-26T04:37:25.709Z,101143.14
2019-05-26T04:40:26.578Z,101143.14
2019-05-26T04:43:14.658Z,101145.22
2019-05-26T04:46:04.623Z,101147.98
2019-05-26T04:48:56.965Z,101144.21
2019-05-26T04:51:49.017Z,101144.21
2019-05-26T04:54:41.162Z,101137.25
2019-05-26T04:57:33.397Z,101137.25
2019-05-26T05:00:25.376Z,101126.36
2019-05-26T05:03:17.406Z,101126.36
2019-05-26T05:06:09.525Z,101131.41
2019-05-26T05:09:01.872Z,101137.86
2019-05-26T05:11:53.789Z,101133.70
2019-05-26T05:14:45.864Z,101133.70
2019-05-26T05:17:38.581Z,101127.48
2019-05-26T05:20:30.670Z,101118.34
2019-05-26T05:23:22.718Z,101116.42
2019-05-26T05:26:14.476Z,101114.72
2019-05-26T05:29:06.281Z,101118.13
2019-05-26T05:31:58.446Z,101112.69
2019-05-26T05:34:50.538Z,101112.69
2019-05-26T05:37:42.444Z,101118.37
2019-05-26T05:40:34.489Z,101117.33
2019-05-26T05:43:26.323Z,101112.31
2019-05-26T05:46:18.310Z,101109.84
2019-05-26T05:49:10.397Z,101103.35
2019-05-26T05:52:02.229Z,101098.97
2019-05-26T05:54:54.130Z,101097.72
2019-05-26T05:57:45.915Z,101111.06
2019-05-26T06:00:38.097Z,101117.70
2019-05-26T06:03:30.271Z,101110.91
2019-05-26T06:06:22.309Z,101096.61
2019-05-26T06:09:14.314Z,101094.47
2019-05-26T06:12:06.166Z,101082.19
2019-05-26T06:14:58.162Z,101082.61
2019-05-26T06:17:50.229Z,101084.13
2019-05-26T06:20:42.102Z,101087.59
2019-05-26T06:23:36.880Z,101087.04
2019-05-26T06:26:27.549Z,101087.04
2019-05-26T06:29:20.038Z,101089.99
2019-05-26T06:32:12.510Z,101087.70
2019-05-26T06:35:04.874Z,101077.37
2019-05-26T06:37:57.049Z,101080.30
2019-05-26T06:40:48.784Z,101072.86
2019-05-26T06:43:41.076Z,101078.47
2019-05-26T06:46:33.349Z,101078.47
2019-05-26T06:49:25.304Z,101079.56
2019-05-26T06:52:17.318Z,101088.67
2019-05-26T06:55:09.086Z,101091.28
2019-05-26T06:58:00.909Z,101091.28
2019-05-26T07:00:52.934Z,101085.38
2019-05-26T07:03:44.702Z,101084.40
2019-05-26T07:06:36.793Z,101100.02
2019-05-26T07:09:28.805Z,101095.02
2019-05-26T07:12:20.763Z,101098.39
2019-05-26T07:15:13.817Z,101098.39
2019-05-26T07:18:05.477Z,101095.13
2019-05-26T07:20:57.248Z,101097.39
2019-05-26T07:23:49.161Z,101085.32
2019-05-26T07:26:41.334Z,101091.77
2019-05-26T07:29:33.361Z,101091.77
2019-05-26T07:32:25.486Z,101084.73
2019-05-26T07:35:17.454Z,101080.80
2019-05-26T07:38:09.535Z,101080.80
2019-05-26T07:41:01.714Z,101078.27
2019-05-26T07:43:53.498Z,101074.78
2019-05-26T07:46:45.436Z,101070.98
2019-05-26T07:49:37.687Z,101065.20
2019-05-26T07:52:29.481Z,101062.92
2019-05-26T07:55:21.566Z,101060.67
2019-05-26T07:58:13.943Z,101060.67
2019-05-26T08:01:06.060Z,101061.77
2019-05-26T08:03:58.195Z,101055.95
2019-05-26T08:06:50.050Z,101055.95
2019-05-26T08:09:42.149Z,101053.28
2019-05-26T08:12:34.234Z,101056.20
2019-05-26T08:15:25.992Z,101056.03
2019-05-26T08:18:18.320Z,101056.03
2019-05-26T08:21:10.236Z,101061.61
2019-05-26T08:24:02.526Z,101045.64
2019-05-26T08:26:54.876Z,101045.64
2019-05-26T08:29:46.773Z,101044.45
2019-05-26T08:32:38.691Z,101044.45
2019-05-26T08:35:30.852Z,101044.42
2019-05-26T08:38:23.747Z,101033.83
2019-05-26T08:41:15.791Z,101033.83
2019-05-26T08:44:08.044Z,101044.17
2019-05-26T08:47:00.028Z,101033.91
2019-05-26T08:49:52.165Z,101020.04
2019-05-26T08:52:44.433Z,101024.83
2019-05-26T08:55:36.349Z,101031.24
2019-05-26T08:58:29.425Z,101016.94
2019-05-26T09:01:21.538Z,101016.94
2019-05-26T09:04:13.589Z,101017.00
2019-05-26T09:07:05.763Z,101032.45
2019-05-26T09:09:57.842Z,101032.45
2019-05-26T09:13:00.099Z,101015.98
2019-05-26T09:15:43.647Z,101009.59
2019-05-26T09:18:35.234Z,101009.59
2019-05-26T09:21:27.434Z,101005.79
2019-05-26T09:24:19.458Z,101004.14
2019-05-26T09:27:11.536Z,101004.14
2019-05-26T09:30:04.989Z,101000.03
2019-05-26T09:32:56.845Z,100998.41
2019-05-26T09:35:49.024Z,100997.39
2019-05-26T09:38:40.909Z,100997.39
2019-05-26T09:41:32.755Z,100995.73
2019-05-26T09:44:24.655Z,100994.72
2019-05-26T09:47:16.774Z,101000.44
2019-05-26T09:50:08.705Z,100984.48
2019-05-26T09:53:00.748Z,100986.27
2019-05-26T09:55:52.455Z,100986.84
2019-05-26T09:58:44.361Z,100987.11
2019-05-26T10:01:36.452Z,100987.10
2019-05-26T10:04:28.510Z,100978.92
2019-05-26T10:07:20.280Z,100980.27
2019-05-26T10:10:12.339Z,100980.27
2019-05-26T10:13:04.324Z,100968.08
2019-05-26T10:15:56.094Z,100968.08
2019-05-26T10:18:47.958Z,100978.45
2019-05-26T10:21:39.861Z,100967.77
2019-05-26T10:24:32.147Z,100974.50
2019-05-26T10:27:23.941Z,100976.45
2019-05-26T10:30:16.085Z,100976.45
2019-05-26T10:33:08.167Z,100970.52
2019-05-26T10:36:00.127Z,100962.36
2019-05-26T10:38:51.900Z,100962.36
2019-05-26T10:41:43.763Z,100964.53
2019-05-26T10:44:35.554Z,100958.27
2019-05-26T10:47:27.559Z,100957.91
2019-05-26T10:50:19.407Z,100957.91
2019-05-26T10:53:11.050Z,100952.13
2019-05-26T10:56:02.847Z,100932.34
2019-05-26T10:58:54.597Z,100932.34
2019-05-26T11:01:46.281Z,100929.00
2019-05-26T11:04:38.307Z,100929.00
2019-05-26T11:07:30.112Z,100924.41
2019-05-26T11:10:22.157Z,100924.41
2019-05-26T11:13:13.909Z,100930.66
2019-05-26T11:16:06.027Z,100920.42
2019-05-26T11:18:57.958Z,100931.05
2019-05-26T11:21:49.689Z,100914.42
2019-05-26T11:24:41.881Z,100912.27
2019-05-26T11:27:33.907Z,100908.67
2019-05-26T11:30:25.859Z,100908.34
2019-05-26T11:33:17.640Z,100908.34
2019-05-26T11:36:09.509Z,100903.72
2019-05-26T11:39:01.550Z,100904.39
2019-05-26T11:41:55.203Z,100904.39
2019-05-26T11:44:47.181Z,100904.02
2019-05-26T11:47:38.972Z,100896.80
2019-05-26T11:50:30.982Z,100896.80
2019-05-26T11:53:23.058Z,100905.75
2019-05-26T11:56:14.849Z,100892.03
2019-05-26T11:59:06.904Z,100889.38
2019-05-26T12:01:58.784Z,100887.75
2019-05-26T12:04:50.913Z,100884.17
2019-05-26T12:07:42.800Z,100877.86
2019-05-26T12:10:34.930Z,100881.14
2019-05-26T12:13:27.114Z,100874.63
2019-05-26T12:16:19.147Z,100871.30
2019-05-26T12:19:11.303Z,100875.54
2019-05-26T12:22:03.570Z,100870.73
2019-05-26T12:24:55.460Z,100868.19
2019-05-26T12:27:47.847Z,100868.19
2019-05-26T12:30:40.033Z,100876.11
2019-05-26T12:33:32.174Z,100850.36
2019-05-26T12:36:24.442Z,100844.00
2019-05-26T12:39:16.530Z,100844.00
2019-05-26T12:42:08.793Z,100853.34
2019-05-26T12:45:00.945Z,100853.34
2019-05-26T12:47:53.162Z,100848.69
2019-05-26T12:50:45.250Z,100844.67
2019-05-26T12:53:37.514Z,100844.67
2019-05-26T12:56:29.506Z,100839.92
2019-05-26T12:59:21.563Z,100838.41
2019-05-26T13:02:13.515Z,100833.47
2019-05-26T13:05:06.537Z,100839.81
2019-05-26T13:07:58.167Z,100839.81
2019-05-26T13:10:49.930Z,100819.05
2019-05-26T13:13:41.921Z,100817.26
2019-05-26T13:16:35.946Z,100813.50
2019-05-26T13:19:28.091Z,100825.38
2019-05-26T13:22:19.817Z,100825.85
2019-05-26T13:25:12.433Z,100823.59
2019-05-26T13:28:04.862Z,100817.28
2019-05-26T13:30:57.552Z,100808.42
2019-05-26T13:33:49.216Z,100819.54
2019-05-26T13:36:40.974Z,100819.63
2019-05-26T13:39:32.821Z,100817.78
2019-05-26T13:42:24.795Z,100817.78
2019-05-26T13:45:22.908Z,100813.40
2019-05-26T13:48:10.355Z,100813.40
2019-05-26T13:51:02.503Z,100812.70
2019-05-26T13:53:54.495Z,100804.56
2019-05-26T13:56:46.333Z,100804.56
2019-05-26T13:59:38.503Z,100809.84
2019-05-26T14:02:30.698Z,100806.80
2019-05-26T14:05:22.798Z,100796.72
2019-05-26T14:08:14.650Z,100796.72
2019-05-26T14:11:06.455Z,100798.31
2019-05-26T14:13:58.511Z,100796.57
2019-05-26T14:16:50.272Z,100796.57
2019-05-26T14:19:42.728Z,100788.80
2019-05-26T14:22:34.601Z,100788.80
2019-05-26T14:25:26.436Z,100791.11
2019-05-26T14:28:18.112Z,100779.77
2019-05-26T14:31:09.942Z,100775.56
2019-05-26T14:34:01.633Z,100774.28
2019-05-26T14:36:53.609Z,100781.20
2019-05-26T14:39:45.686Z,100768.03
2019-05-26T14:42:37.667Z,100768.03
2019-05-26T14:45:29.400Z,100767.28
2019-05-26T14:48:21.218Z,100764.56
2019-05-26T14:51:13.792Z,100758.75
2019-05-26T14:54:05.977Z,100794.27
2019-05-26T14:56:58.120Z,100765.87
2019-05-26T14:59:50.317Z,100770.95
2019-05-26T15:02:42.593Z,100770.95
2019-05-26T15:05:34.749Z,100754.48
2019-05-26T15:08:26.553Z,100749.14
2019-05-26T15:11:18.783Z,100742.89
2019-05-26T15:14:11.067Z,100748.38
2019-05-26T15:17:03.171Z,100748.38
2019-05-26T15:19:55.417Z,100732.56
2019-05-26T15:22:47.861Z,100732.28
2019-05-26T15:25:39.838Z,100736.36
2019-05-26T15:28:31.781Z,100736.36
2019-05-26T15:31:24.153Z,100727.41
2019-05-26T15:34:16.190Z,100722.94
2019-05-26T15:37:08.486Z,100725.02
2019-05-26T15:40:00.571Z,100716.69
2019-05-26T15:42:52.525Z,100711.34
2019-05-26T15:45:44.733Z,100716.97
2019-05-26T15:48:37.019Z,100706.66
2019-05-26T15:51:29.164Z,100706.66
2019-05-26T15:54:21.339Z,100701.94
2019-05-26T15:57:13.996Z,100701.94
2019-05-26T16:00:07.552Z,100706.08
2019-05-26T16:02:59.566Z,100696.19
2019-05-26T16:05:51.411Z,100693.78
2019-05-26T16:08:43.481Z,100693.78
2019-05-26T16:11:35.523Z,100686.11
2019-05-26T16:14:27.227Z,100686.11
2019-05-26T16:17:20.445Z,100681.91
2019-05-26T16:20:14.214Z,100686.88
2019-05-26T16:23:08.742Z,100672.05
2019-05-26T16:25:59.865Z,100668.45
2019-05-26T16:28:51.713Z,100663.09
2019-05-26T16:31:43.815Z,100663.09
2019-05-26T16:34:35.904Z,100663.17
2019-05-26T16:37:27.730Z,100658.15
2019-05-26T16:40:19.596Z,100661.34
2019-05-26T16:43:11.593Z,100661.83
2019-05-26T16:46:03.956Z,100661.83
2019-05-26T16:48:56.177Z,100664.03
2019-05-26T16:51:48.217Z,100658.59
2019-05-26T16:54:40.042Z,100658.59
2019-05-26T16:57:31.847Z,100661.14
2019-05-26T17:00:24.044Z,100656.66
2019-05-26T17:03:15.824Z,100657.50
2019-05-26T17:06:08.383Z,100657.50
2019-05-26T17:09:00.784Z,100661.31
2019-05-26T17:11:52.756Z,100644.19
2019-05-26T17:14:45.037Z,100648.24
2019-05-26T17:17:37.372Z,100654.41
2019-05-26T17:20:29.591Z,100654.41
2019-05-26T17:26:13.365Z,100659.27
2019-05-26T17:29:05.469Z,100644.47
2019-05-26T17:31:57.519Z,100645.05
2019-05-26T17:34:49.736Z,100635.64
2019-05-26T17:37:41.838Z,100646.45
2019-05-26T17:40:33.714Z,100646.45
2019-05-26T17:43:25.625Z,100640.61
2019-05-26T17:46:17.713Z,100637.84
2019-05-26T17:49:09.969Z,100629.76
2019-05-26T17:52:01.806Z,100629.76
2019-05-26T17:54:53.959Z,100606.50
2019-05-26T17:57:45.920Z,100619.51
2019-05-26T18:00:37.989Z,100619.51
2019-05-26T18:03:30.269Z,100625.46
2019-05-26T18:06:22.187Z,100625.46
2019-05-26T18:09:14.383Z,100617.84
2019-05-26T18:12:06.522Z,100614.20
2019-05-26T18:14:58.623Z,100614.20
2019-05-26T18:17:50.741Z,100615.77
2019-05-26T18:20:42.640Z,100619.30
2019-05-26T18:23:34.794Z,100619.30
2019-05-26T18:26:27.251Z,100616.24
2019-05-26T18:29:19.193Z,100615.68
2019-05-26T18:32:11.317Z,100616.34
2019-05-26T18:35:07.544Z,100610.50
2019-05-26T18:37:59.686Z,100610.50
2019-05-26T18:40:51.507Z,100613.17
2019-05-26T18:43:43.629Z,100613.47
2019-05-26T18:46:35.427Z,100597.06
2019-05-26T18:49:27.229Z,100611.27
2019-05-26T18:52:19.051Z,100606.86
2019-05-26T18:55:11.029Z,100607.82
2019-05-26T18:58:03.185Z,100603.17
2019-05-26T19:00:54.952Z,100603.03
2019-05-26T19:03:46.791Z,100603.13
2019-05-26T19:06:38.556Z,100603.83
2019-05-26T19:09:30.314Z,100597.87
2019-05-26T19:12:22.471Z,100597.87
2019-05-26T19:15:14.581Z,100594.83
2019-05-26T19:18:19.334Z,100589.00
2019-05-26T19:21:00.724Z,100582.18
2019-05-26T19:23:52.532Z,100584.13
2019-05-26T19:26:44.349Z,100592.17
2019-05-26T19:29:36.111Z,100589.27
2019-05-26T19:32:27.973Z,100593.13
2019-05-26T19:35:19.845Z,100586.52
2019-05-26T19:38:11.799Z,100579.87
2019-05-26T19:41:03.896Z,100581.34
2019-05-26T19:43:56.027Z,100577.56
2019-05-26T19:46:47.885Z,100577.56
2019-05-26T19:49:40.204Z,100575.39
2019-05-26T19:52:32.339Z,100582.90
2019-05-26T19:55:24.200Z,100582.90
2019-05-26T19:58:16.163Z,100582.10
2019-05-26T20:01:08.501Z,100572.92
2019-05-26T20:04:00.591Z,100572.34
2019-05-26T20:06:52.751Z,100576.28
2019-05-26T20:09:45.375Z,100576.28
2019-05-26T20:12:37.838Z,100571.08
2019-05-26T20:15:30.020Z,100575.08
2019-05-26T20:18:22.344Z,100579.52
2019-05-26T20:21:14.698Z,100566.11
2019-05-26T20:24:06.836Z,100566.11
2019-05-26T20:26:58.802Z,100568.72
2019-05-26T20:29:50.731Z,100568.72
2019-05-26T20:32:42.852Z,100554.94
2019-05-26T20:35:34.689Z,100553.23
2019-05-26T20:38:26.650Z,100546.67
2019-05-26T20:41:18.854Z,100560.05
2019-05-26T20:44:10.855Z,100555.44
2019-05-26T20:47:02.925Z,100555.44
2019-05-26T20:49:54.793Z,100554.45
2019-05-26T20:52:46.881Z,100554.45
2019-05-26T20:55:39.041Z,100551.09
2019-05-26T20:58:31.142Z,100551.19
2019-05-26T21:01:23.113Z,100551.19
2019-05-26T21:04:15.254Z,100552.23
2019-05-26T21:07:07.299Z,100548.72
2019-05-26T21:09:59.239Z,100547.67
2019-05-26T21:12:51.281Z,100548.23
2019-05-26T21:15:43.255Z,100546.66
2019-05-26T21:18:35.175Z,100548.78
2019-05-26T21:21:27.350Z,100548.78
2019-05-26T21:24:19.574Z,100551.41
2019-05-26T21:27:11.415Z,100546.92
2019-05-26T21:30:05.480Z,100546.92
2019-05-26T21:32:57.594Z,100550.34
2019-05-26T21:35:49.799Z,100543.76
2019-05-26T21:38:41.967Z,100547.23
2019-05-26T21:41:33.937Z,100547.23
2019-05-26T21:44:25.767Z,100567.09
2019-05-26T21:47:17.656Z,100572.19
2019-05-26T21:50:09.404Z,100558.25
2019-05-26T21:53:01.683Z,100558.25
2019-05-26T21:55:53.636Z,100564.75
2019-05-26T21:58:45.492Z,100559.37
2019-05-26T22:01:37.544Z,100554.20
2019-05-26T22:04:30.384Z,100554.20
2019-05-26T22:07:22.500Z,100566.22
2019-05-26T22:10:14.904Z,100566.22
2019-05-26T22:13:06.794Z,100561.38
2019-05-26T22:15:58.655Z,100576.73
2019-05-26T22:18:50.424Z,100564.73
2019-05-26T22:21:42.440Z,100564.73
2019-05-26T22:24:34.352Z,100568.72
2019-05-26T22:27:26.119Z,100573.86
2019-05-26T22:30:17.911Z,100559.19
2019-05-26T22:33:09.664Z,100567.16
2019-05-26T22:36:01.781Z,100566.37
2019-05-26T22:38:53.867Z,100570.03
2019-05-26T22:41:46.028Z,100570.03
2019-05-26T22:44:38.287Z,100574.34
2019-05-26T22:47:30.038Z,100574.34
2019-05-26T22:50:22.117Z,100574.72
2019-05-26T22:53:13.979Z,100574.93
2019-05-26T22:56:05.696Z,100566.55
2019-05-26T22:58:57.786Z,100572.59
2019-05-26T23:01:49.862Z,100576.86
2019-05-26T23:04:41.729Z,100573.72
2019-05-26T23:07:33.630Z,100578.19
2019-05-26T23:10:25.807Z,100585.87
2019-05-26T23:13:17.890Z,100583.16
2019-05-26T23:16:09.857Z,100587.16
2019-05-26T23:19:18.018Z,100587.16
2019-05-26T23:21:55.843Z,100597.04
2019-05-26T23:24:48.115Z,100588.17
2019-05-26T23:27:40.490Z,100588.17
2019-05-26T23:30:32.431Z,100587.35
2019-05-26T23:33:24.564Z,100591.44
2019-05-26T23:36:16.775Z,100588.02
2019-05-26T23:39:08.877Z,100583.70
2019-05-26T23:42:01.088Z,100583.17
2019-05-26T23:44:53.086Z,100581.97
2019-05-26T23:47:45.140Z,100574.59
2019-05-26T23:50:36.968Z,100574.80
2019-05-26T23:53:28.955Z,100581.15
2019-05-26T23:56:20.852Z,100576.77
2019-05-26T23:59:13.788Z,100576.77
